Time;durP1;ratioP1;P1;durP2;ratioP2;P2;SDS_P1;SDS_P2;PMS_P1;PMS_P2;Temp;Humidity;BMP_temperature;BMP_pressure;BME280_temperature;BME280_humidity;BME280_pressure;Samples;Min_cycle;Max_cycle;Signal;HPM_P1;HPM_P2
2022/06/22 00:02:17;;;;;;;9.55;5.72;;;13.80;99.90;;;;;;4978475;28;20050;-74
2022/06/22 00:04:47;;;;;;;8.40;5.03;;;13.80;99.90;;;;;;4978521;28;20518;-74
2022/06/22 00:07:16;;;;;;;9.73;5.38;;;13.80;99.90;;;;;;4962004;28;20125;-74
2022/06/22 00:09:44;;;;;;;8.23;5.53;;;13.70;99.90;;;;;;4976837;28;20052;-74
2022/06/22 00:12:26;;;;;;;11.13;5.88;;;13.70;99.90;;;;;;4978437;28;20432;-74
2022/06/22 00:14:54;;;;;;;8.93;5.72;;;13.70;99.90;;;;;;4962185;28;20046;-74
2022/06/22 00:17:34;;;;;;;9.68;5.47;;;13.60;99.90;;;;;;4977974;28;20081;-74
2022/06/22 00:20:11;;;;;;;9.13;5.45;;;13.60;99.90;;;;;;4977898;28;20042;-74
2022/06/22 00:22:50;;;;;;;7.38;4.72;;;13.60;99.90;;;;;;4978027;28;20038;-74
2022/06/22 00:25:19;;;;;;;8.27;4.78;;;13.60;99.90;;;;;;4977795;28;20042;-74
2022/06/22 00:27:45;;;;;;;9.57;5.57;;;13.50;99.90;;;;;;4977938;28;20043;-74
2022/06/22 00:30:20;;;;;;;7.50;4.93;;;13.50;99.90;;;;;;4977726;28;20093;-74
2022/06/22 00:33:13;;;;;;;8.23;4.20;;;13.50;99.90;;;;;;4961629;28;20078;-74
2022/06/22 00:35:51;;;;;;;8.77;4.70;;;13.40;99.90;;;;;;4977216;28;20101;-74
2022/06/22 00:38:31;;;;;;;7.72;4.95;;;13.30;99.90;;;;;;4978308;28;20056;-74
2022/06/22 00:41:12;;;;;;;8.82;5.10;;;13.20;99.90;;;;;;4977486;28;20038;-74
2022/06/22 00:43:38;;;;;;;9.63;4.90;;;13.20;99.90;;;;;;4977430;28;20078;-74
2022/06/22 00:46:14;;;;;;;9.95;6.00;;;13.20;99.90;;;;;;4977501;28;20128;-74
2022/06/22 00:48:40;;;;;;;11.07;5.60;;;13.20;99.90;;;;;;4977266;28;20495;-74
2022/06/22 00:51:12;;;;;;;8.30;5.38;;;13.10;99.90;;;;;;4961139;28;20085;-74
2022/06/22 00:53:49;;;;;;;10.23;5.85;;;13.20;99.90;;;;;;4977369;28;20038;-74
2022/06/22 00:56:20;;;;;;;9.25;5.95;;;13.10;99.90;;;;;;4961196;28;20038;-74
2022/06/22 00:59:19;;;;;;;7.28;5.38;;;13.10;99.90;;;;;;4961257;28;20129;-74
2022/06/22 01:02:03;;;;;;;7.57;5.07;;;13.10;99.90;;;;;;4977087;28;20483;-74
2022/06/22 01:04:53;;;;;;;2.83;1.75;;;13.10;99.90;;;;;;4976942;28;20046;-74
2022/06/22 01:07:34;;;;;;;6.05;3.65;;;13.00;99.90;;;;;;4977314;28;20096;-74
2022/06/22 01:10:06;;;;;;;6.60;4.72;;;12.90;99.90;;;;;;4977241;28;20112;-74
2022/06/22 01:12:46;;;;;;;10.43;6.38;;;12.80;99.90;;;;;;4977176;28;20399;-74
2022/06/22 01:15:23;;;;;;;4.88;3.92;;;12.80;99.90;;;;;;4976859;28;20415;-74
2022/06/22 01:18:14;;;;;;;4.93;3.42;;;12.70;99.90;;;;;;4976742;28;20172;-74
2022/06/22 01:21:01;;;;;;;4.05;3.28;;;12.70;99.90;;;;;;4965920;28;20050;-74
2022/06/22 01:23:45;;;;;;;5.65;4.05;;;12.60;99.90;;;;;;4976730;28;20042;-74
2022/06/22 01:26:22;;;;;;;5.00;3.40;;;12.60;99.90;;;;;;4976735;28;20454;-74
2022/06/22 01:28:58;;;;;;;7.03;6.30;;;12.50;99.90;;;;;;4976968;28;20050;-74
2022/06/22 01:31:24;;;;;;;8.52;6.05;;;12.40;99.90;;;;;;4976916;28;20085;-74
2022/06/22 01:33:51;;;;;;;10.48;3.90;;;12.30;99.90;;;;;;4960543;28;20042;-74
2022/06/22 01:36:24;;;;;;;5.63;3.63;;;12.30;99.90;;;;;;4976831;28;20125;-74
2022/06/22 01:38:51;;;;;;;6.10;3.95;;;12.20;99.90;;;;;;4977000;28;20108;-74
2022/06/22 01:41:47;;;;;;;5.20;3.90;;;12.10;99.90;;;;;;4976755;28;20046;-74
2022/06/22 01:44:16;;;;;;;4.63;3.40;;;12.10;99.90;;;;;;4976767;28;20613;-74
2022/06/22 01:46:50;;;;;;;5.35;3.42;;;12.00;99.90;;;;;;4976975;28;20034;-74
2022/06/22 01:49:22;;;;;;;5.75;3.95;;;12.00;99.90;;;;;;4976827;28;20038;-74
2022/06/22 01:51:58;;;;;;;7.47;4.70;;;12.10;99.90;;;;;;4976356;28;20494;-74
2022/06/22 01:54:37;;;;;;;6.32;5.00;;;12.00;99.90;;;;;;4976353;28;20050;-74
2022/06/22 01:57:26;;;;;;;8.20;5.20;;;12.00;99.90;;;;;;4976376;28;20042;-74
2022/06/22 01:59:55;;;;;;;6.57;4.55;;;12.00;99.90;;;;;;4976296;28;20038;-74
2022/06/22 02:02:30;;;;;;;5.85;4.30;;;12.00;99.90;;;;;;4960224;28;20042;-74
2022/06/22 02:05:31;;;;;;;7.60;5.80;;;12.00;99.90;;;;;;4976333;28;20053;-75
2022/06/22 02:08:10;;;;;;;9.18;5.90;;;12.00;99.90;;;;;;4975961;28;20466;-75
2022/06/22 02:10:35;;;;;;;9.60;5.82;;;11.90;99.90;;;;;;4976205;28;20034;-73
2022/06/22 02:13:15;;;;;;;7.13;6.10;;;11.80;99.90;;;;;;4976435;28;20069;-72
2022/06/22 02:16:07;;;;;;;5.28;3.80;;;11.90;99.90;;;;;;4976469;28;20133;-73
2022/06/22 02:18:36;;;;;;;7.18;5.30;;;11.80;99.90;;;;;;4976066;28;20058;-73
2022/06/22 02:21:19;;;;;;;8.55;5.70;;;11.80;99.90;;;;;;4976138;28;20046;-73
2022/06/22 02:23:50;;;;;;;9.00;5.68;;;11.80;99.90;;;;;;4959826;28;20428;-73
2022/06/22 02:26:20;;;;;;;11.38;6.60;;;11.70;99.90;;;;;;4976108;28;20042;-73
2022/06/22 02:28:46;;;;;;;8.55;5.72;;;11.70;99.90;;;;;;4975938;28;20041;-73
2022/06/22 02:31:13;;;;;;;7.53;5.45;;;11.70;99.90;;;;;;4976306;28;20060;-73
2022/06/22 02:33:43;;;;;;;5.85;4.50;;;11.70;99.90;;;;;;4979694;28;20467;-73
2022/06/22 02:36:10;;;;;;;9.02;5.72;;;11.60;99.90;;;;;;4979783;28;20057;-73
2022/06/22 02:38:37;;;;;;;9.25;6.32;;;11.60;99.90;;;;;;4979927;28;20093;-73
2022/06/22 02:46:36;;;;;;;7.78;5.43;;;11.50;99.90;;;;;;4979620;28;20042;-73
2022/06/22 02:49:10;;;;;;;5.93;5.32;;;11.40;99.90;;;;;;4979513;28;20046;-73
2022/06/22 02:51:43;;;;;;;7.95;5.78;;;11.40;99.90;;;;;;4980038;28;20030;-73
2022/06/22 02:54:27;;;;;;;6.80;5.43;;;11.40;99.90;;;;;;4963416;28;20093;-73
2022/06/22 02:57:19;;;;;;;6.78;5.78;;;11.30;99.90;;;;;;4979918;28;20050;-73
2022/06/22 02:59:47;;;;;;;6.57;5.78;;;11.30;99.90;;;;;;4963153;28;20043;-73
2022/06/22 03:02:12;;;;;;;6.35;5.50;;;11.20;99.90;;;;;;4979321;28;20042;-73
2022/06/22 03:04:44;;;;;;;6.03;5.20;;;11.20;99.90;;;;;;4979480;28;20049;-73
2022/06/22 03:07:10;;;;;;;5.50;5.00;;;11.20;99.90;;;;;;4963136;28;20042;-73
2022/06/22 03:09:37;;;;;;;5.40;4.90;;;11.10;99.90;;;;;;4979019;28;20085;-73
2022/06/22 03:12:03;;;;;;;5.13;4.63;;;11.10;99.90;;;;;;4979427;28;20073;-72
2022/06/22 03:14:36;;;;;;;5.35;4.20;;;11.20;99.90;;;;;;4979351;28;20046;-72
2022/06/22 03:17:14;;;;;;;5.75;4.45;;;11.20;99.90;;;;;;4963257;28;20065;-73
2022/06/22 03:19:42;;;;;;;5.75;4.93;;;11.20;99.90;;;;;;4962838;28;20121;-73
2022/06/22 03:22:14;;;;;;;5.90;5.05;;;11.10;99.90;;;;;;4962822;28;20049;-73
2022/06/22 03:24:48;;;;;;;5.05;4.55;;;11.10;99.90;;;;;;4978871;28;20054;-73
2022/06/22 03:27:18;;;;;;;5.30;4.75;;;11.00;99.90;;;;;;4979381;28;20129;-72
2022/06/22 03:30:03;;;;;;;5.20;4.70;;;11.00;99.90;;;;;;4978738;28;20040;-72
2022/06/22 03:32:39;;;;;;;7.00;5.55;;;11.00;99.90;;;;;;4979784;28;20089;-72
2022/06/22 03:35:23;;;;;;;6.10;5.53;;;11.00;99.90;;;;;;4978995;28;20053;-73
2022/06/22 03:37:59;;;;;;;5.15;4.65;;;11.00;99.90;;;;;;4978588;28;20035;-73
2022/06/22 03:40:32;;;;;;;5.35;4.72;;;11.00;99.90;;;;;;4978646;28;20490;-73
2022/06/22 03:43:11;;;;;;;5.78;5.18;;;11.00;99.90;;;;;;4963159;28;20092;-73
2022/06/22 03:45:46;;;;;;;6.10;5.50;;;11.10;99.90;;;;;;4978579;28;20070;-73
2022/06/22 03:48:15;;;;;;;5.35;4.85;;;11.10;99.90;;;;;;4962898;28;20045;-73
2022/06/22 03:50:40;;;;;;;5.03;4.53;;;11.10;99.90;;;;;;4978403;28;20043;-73
2022/06/22 03:53:26;;;;;;;7.10;5.10;;;11.10;99.90;;;;;;4978422;28;20052;-73
2022/06/22 03:55:57;;;;;;;10.43;7.10;;;11.20;99.90;;;;;;4978927;28;20487;-73
2022/06/22 03:58:24;;;;;;;9.02;7.63;;;11.20;99.90;;;;;;4962151;28;20046;-73
2022/06/22 04:00:50;;;;;;;8.70;7.18;;;11.30;99.90;;;;;;4978250;28;20072;-73
2022/06/22 04:03:18;;;;;;;13.30;8.57;;;11.30;99.90;;;;;;4978347;28;20077;-73
2022/06/22 04:05:47;;;;;;;13.20;10.00;;;11.40;99.90;;;;;;4978391;28;20034;-73
2022/06/22 04:08:27;;;;;;;10.90;9.40;;;11.50;99.90;;;;;;4977940;28;20048;-73
2022/06/22 04:11:01;;;;;;;13.05;9.27;;;11.60;99.90;;;;;;4978377;28;20038;-73
2022/06/22 04:13:34;;;;;;;10.93;8.65;;;11.60;99.90;;;;;;4977987;28;20490;-73
2022/06/22 04:16:07;;;;;;;10.68;8.95;;;11.70;99.90;;;;;;4977987;28;20499;-73
2022/06/22 04:18:57;;;;;;;16.42;11.43;;;11.80;99.90;;;;;;4978149;28;20042;-73
2022/06/22 04:21:29;;;;;;;19.27;11.55;;;11.80;99.90;;;;;;4977496;28;20133;-73
2022/06/22 04:24:29;;;;;;;13.45;10.55;;;11.90;99.90;;;;;;4977793;28;20050;-73
2022/06/22 04:27:06;;;;;;;15.23;11.15;;;12.10;99.90;;;;;;4975857;28;20057;-73
2022/06/22 04:30:03;;;;;;;13.93;10.98;;;12.10;99.90;;;;;;4993929;28;20042;-73
2022/06/22 04:32:39;;;;;;;17.73;11.18;;;12.20;99.90;;;;;;4969778;28;20046;-73
2022/06/22 04:35:20;;;;;;;15.63;11.18;;;12.30;99.90;;;;;;4961477;28;20038;-73
2022/06/22 04:37:52;;;;;;;14.88;10.93;;;12.40;99.90;;;;;;4977477;28;20038;-73
2022/06/22 04:40:31;;;;;;;16.80;10.77;;;12.50;99.90;;;;;;4977551;28;20042;-73
2022/06/22 04:43:01;;;;;;;13.95;10.63;;;12.60;99.90;;;;;;4977735;28;20102;-73
2022/06/22 04:45:37;;;;;;;17.85;11.50;;;12.70;99.90;;;;;;4993654;28;20042;-73
2022/06/22 04:48:09;;;;;;;13.23;10.52;;;12.70;99.90;;;;;;4993724;28;20038;-73
2022/06/22 04:50:38;;;;;;;14.15;11.02;;;12.80;99.90;;;;;;4977325;28;20049;-73
2022/06/22 04:53:04;;;;;;;14.38;10.82;;;12.80;99.90;;;;;;4993457;28;20046;-73
2022/06/22 04:55:38;;;;;;;13.15;11.48;;;12.90;99.90;;;;;;4976960;28;20082;-73
2022/06/22 04:58:13;;;;;;;14.02;10.82;;;13.00;99.90;;;;;;4977191;28;20469;-73
2022/06/22 05:00:40;;;;;;;18.75;11.65;;;13.10;99.90;;;;;;4977168;28;20096;-73
2022/06/22 05:03:13;;;;;;;11.70;10.45;;;13.10;99.90;;;;;;4993222;28;20042;-72
2022/06/22 05:05:38;;;;;;;;;;;13.20;99.90;;;;;;4977508;28;20121;-72
2022/06/22 05:08:31;;;;;;;13.00;10.63;;;13.20;99.90;;;;;;4976764;28;20058;-72
2022/06/22 05:11:03;;;;;;;16.85;11.38;;;13.20;99.90;;;;;;4972019;28;20051;-72
2022/06/22 05:13:42;;;;;;;16.10;10.23;;;13.30;99.90;;;;;;4976900;28;20059;-72
2022/06/22 05:16:22;;;;;;;17.00;10.90;;;13.40;99.90;;;;;;4977935;28;20096;-73
2022/06/22 05:18:52;;;;;;;15.68;10.55;;;13.40;99.90;;;;;;4976782;28;20078;-73
2022/06/22 05:21:38;;;;;;;16.27;10.80;;;13.50;99.90;;;;;;4976794;28;20038;-73
2022/06/22 05:24:32;;;;;;;20.50;10.70;;;13.60;99.90;;;;;;4992838;28;20097;-73
2022/06/22 05:27:00;;;;;;;22.20;10.70;;;13.70;99.90;;;;;;4975485;28;20088;-73
2022/06/22 05:29:39;;;;;;;12.57;9.00;;;13.70;99.90;;;;;;4977104;28;20042;-73
2022/06/22 05:32:11;;;;;;;14.80;9.55;;;13.80;99.90;;;;;;4976651;28;20035;-72
2022/06/22 05:34:40;;;;;;;12.45;8.82;;;13.90;99.90;;;;;;4977149;28;20388;-72
2022/06/22 05:37:12;;;;;;;15.50;9.02;;;14.00;99.90;;;;;;4977012;28;20045;-72
2022/06/22 05:39:39;;;;;;;15.95;8.57;;;14.00;99.90;;;;;;4960438;28;20039;-72
2022/06/22 05:42:05;;;;;;;13.48;8.68;;;14.10;99.90;;;;;;4976445;28;20088;-72
2022/06/22 05:44:31;;;;;;;14.10;8.82;;;14.20;99.90;;;;;;4976671;28;20105;-73
2022/06/22 05:47:00;;;;;;;16.52;9.27;;;14.30;99.90;;;;;;4976410;28;20491;-73
2022/06/22 05:49:49;;;;;;;16.92;10.35;;;14.30;99.90;;;;;;4976349;28;20039;-73
2022/06/22 05:52:23;;;;;;;17.17;9.75;;;14.40;99.90;;;;;;4976438;28;20043;-73
2022/06/22 05:54:54;;;;;;;18.10;10.23;;;14.50;99.90;;;;;;4976631;28;20081;-72
2022/06/22 05:57:42;;;;;;;17.63;11.23;;;14.60;99.90;;;;;;4976453;28;20050;-72
2022/06/22 06:00:14;;;;;;;17.25;10.60;;;14.70;99.90;;;;;;4976601;28;20058;-72
2022/06/22 06:03:27;;;;;;;17.48;11.30;;;14.80;99.90;;;;;;4976451;28;20074;-72
2022/06/22 06:05:58;;;;;;;12.93;10.83;;;14.80;99.90;;;;;;4937181;28;20073;-73
2022/06/22 06:08:44;;;;;;;15.65;10.90;;;14.90;99.90;;;;;;4940085;29;20107;-73
2022/06/22 06:11:18;;;;;;;15.65;10.63;;;15.00;99.90;;;;;;4940928;29;20046;-73
2022/06/22 06:13:49;;;;;;;15.90;10.55;;;15.10;99.90;;;;;;4940906;29;20051;-73
2022/06/22 06:16:21;;;;;;;15.00;10.48;;;15.10;99.90;;;;;;4940903;29;20106;-73
2022/06/22 06:18:48;;;;;;;17.92;11.07;;;15.20;99.90;;;;;;4940650;29;20047;-73
2022/06/22 06:21:18;;;;;;;13.63;9.23;;;15.30;99.90;;;;;;4940937;29;20158;-73
2022/06/22 06:23:51;;;;;;;12.73;8.40;;;15.40;99.90;;;;;;4940798;29;20554;-73
2022/06/22 06:29:36;;;;;;;11.02;6.90;;;15.60;99.90;;;;;;4940663;29;20126;-73
2022/06/22 06:32:16;;;;;;;9.68;6.18;;;15.70;99.90;;;;;;4940588;29;20594;-73
2022/06/22 06:34:45;;;;;;;8.13;5.53;;;15.80;99.90;;;;;;4940605;29;20142;-74
2022/06/22 06:37:21;;;;;;;9.43;5.30;;;15.80;99.90;;;;;;4940397;29;20089;-74
2022/06/22 06:39:51;;;;;;;9.85;5.18;;;15.90;99.90;;;;;;4940471;29;20043;-72
2022/06/22 06:42:35;;;;;;;11.25;4.90;;;16.00;99.90;;;;;;4965874;28;20117;-73
2022/06/22 06:45:03;;;;;;;8.68;4.35;;;16.10;99.90;;;;;;4979611;28;20075;-73
2022/06/22 06:47:36;;;;;;;9.55;4.65;;;16.20;99.90;;;;;;4979621;28;20050;-72
2022/06/22 06:50:19;;;;;;;6.07;3.40;;;16.30;99.90;;;;;;4963641;28;20545;-72
2022/06/22 06:52:57;;;;;;;7.50;3.08;;;16.30;99.90;;;;;;4980076;28;20137;-72
2022/06/22 06:55:46;;;;;;;6.32;2.50;;;16.40;99.90;;;;;;4980012;28;20546;-73
2022/06/22 06:58:24;;;;;;;6.15;3.30;;;16.50;99.90;;;;;;4979404;28;20034;-73
2022/06/22 07:00:51;;;;;;;6.75;3.03;;;16.60;99.90;;;;;;4979394;28;20491;-73
2022/06/22 07:03:31;;;;;;;6.43;2.70;;;16.70;99.90;;;;;;4979276;28;20046;-73
2022/06/22 07:05:57;;;;;;;6.72;2.88;;;16.90;99.90;;;;;;4979296;28;20415;-73
2022/06/22 07:08:36;;;;;;;6.53;2.45;;;16.90;99.90;;;;;;4979244;28;20485;-73
2022/06/22 07:11:13;;;;;;;8.02;3.22;;;17.10;99.90;;;;;;4963332;28;20088;-73
2022/06/22 07:13:50;;;;;;;6.93;2.97;;;17.20;99.90;;;;;;4979163;28;20499;-73
2022/06/22 07:16:20;;;;;;;8.13;3.00;;;17.30;99.90;;;;;;4979364;28;20054;-73
2022/06/22 07:19:05;;;;;;;5.47;2.97;;;17.50;99.90;;;;;;4978458;28;20057;-73
2022/06/22 07:21:53;;;;;;;6.80;2.83;;;17.60;99.90;;;;;;4979007;28;20474;-73
2022/06/22 07:24:25;;;;;;;7.32;2.97;;;17.70;99.90;;;;;;4978978;28;20053;-73
2022/06/22 07:27:01;;;;;;;5.78;3.03;;;17.80;99.90;;;;;;4978948;28;20410;-74
2022/06/22 07:29:48;;;;;;;4.88;2.65;;;17.90;99.90;;;;;;4962757;28;20042;-72
2022/06/22 07:32:37;;;;;;;9.02;2.92;;;18.00;99.90;;;;;;4978902;28;20125;-73
2022/06/22 07:35:35;;;;;;;6.90;2.72;;;18.10;99.90;;;;;;4978955;28;20042;-73
2022/06/22 07:38:40;;;;;;;8.82;2.67;;;18.20;99.90;;;;;;4962784;28;20038;-73
2022/06/22 07:41:24;;;;;;;6.35;2.28;;;18.30;99.90;;;;;;4978655;28;20049;-73
2022/06/22 07:43:52;;;;;;;8.05;3.67;;;18.40;99.90;;;;;;4962433;28;20050;-73
2022/06/22 07:46:45;;;;;;;6.28;2.40;;;18.50;99.90;;;;;;4978544;28;20038;-73
2022/06/22 07:49:16;;;;;;;5.95;2.30;;;18.60;99.90;;;;;;4992067;23;20054;-71
2022/06/22 07:51:55;;;;;;;6.40;2.58;;;18.70;99.90;;;;;;4978596;28;20517;-71
2022/06/22 07:54:35;;;;;;;10.63;2.58;;;18.80;99.90;;;;;;4962341;28;20046;-71
2022/06/22 07:57:19;;;;;;;5.20;2.10;;;18.90;99.90;;;;;;4978422;28;20078;-71
2022/06/22 07:59:59;;;;;;;5.45;2.40;;;19.10;99.90;;;;;;4978312;28;20046;-71
2022/06/22 08:02:30;;;;;;;7.47;2.60;;;19.20;99.90;;;;;;4962329;28;20046;-68
2022/06/22 08:04:58;;;;;;;4.97;2.20;;;19.20;99.90;;;;;;4962128;28;20513;-68
2022/06/22 08:07:28;;;;;;;4.82;1.83;;;19.40;99.90;;;;;;4962263;28;20038;-69
2022/06/22 08:10:17;;;;;;;5.07;1.73;;;19.50;99.90;;;;;;4962185;28;20035;-69
2022/06/22 08:13:20;;;;;;;5.57;2.00;;;19.60;99.90;;;;;;4978364;28;20046;-69
2022/06/22 08:16:20;;;;;;;4.97;1.60;;;19.70;99.20;;;;;;4882408;29;20144;-69
2022/06/22 08:18:46;;;;;;;4.50;1.98;;;19.80;98.60;;;;;;4863465;29;20521;-69
2022/06/22 08:21:16;;;;;;;6.22;2.20;;;19.90;99.90;;;;;;4847993;29;20048;-69
2022/06/22 08:23:43;;;;;;;4.85;2.08;;;20.00;99.90;;;;;;4863531;29;20067;-69
2022/06/22 08:26:16;;;;;;;7.57;2.08;;;20.00;99.90;;;;;;4863800;29;20610;-69
2022/06/22 08:28:42;;;;;;;4.18;1.83;;;20.20;98.40;;;;;;4863177;29;20056;-69
2022/06/22 08:31:08;;;;;;;5.15;2.03;;;20.30;99.90;;;;;;4862385;29;20140;-68
2022/06/22 08:33:38;;;;;;;5.22;2.22;;;20.40;99.00;;;;;;4863217;29;20052;-69
2022/06/22 08:36:20;;;;;;;8.50;2.67;;;20.50;96.40;;;;;;4863151;29;20084;-68
2022/06/22 08:39:02;;;;;;;5.68;2.08;;;20.70;94.50;;;;;;4863162;29;20065;-68
2022/06/22 08:41:37;;;;;;;7.47;2.20;;;20.80;97.40;;;;;;4863014;29;20056;-68
2022/06/22 08:44:25;;;;;;;5.07;1.67;;;20.90;96.30;;;;;;4862991;29;20096;-68
2022/06/22 08:47:08;;;;;;;8.00;2.10;;;21.10;92.70;;;;;;4878419;29;20101;-68
2022/06/22 08:50:06;;;;;;;5.50;2.25;;;21.10;92.70;;;;;;4862957;29;20049;-68
2022/06/22 08:53:07;;;;;;;6.32;2.17;;;21.30;91.80;;;;;;4938018;29;20047;-68
2022/06/22 08:56:02;;;;;;;5.80;2.08;;;21.40;91.10;;;;;;4949699;28;20046;-68
2022/06/22 08:59:05;;;;;;;4.80;1.88;;;21.50;85.60;;;;;;4977175;28;20446;-68
2022/06/22 09:02:02;;;;;;;9.10;1.90;;;21.60;81.00;;;;;;4977279;28;20084;-68
2022/06/22 09:05:01;;;;;;;6.68;2.50;;;21.70;86.70;;;;;;4977029;28;20050;-68
2022/06/22 09:08:30;;;;;;;6.20;2.28;;;21.80;83.10;;;;;;4945795;28;20133;-68
2022/06/22 09:11:04;;;;;;;7.63;2.22;;;21.90;82.90;;;;;;4881020;29;20045;-68
2022/06/22 09:13:51;;;;;;;7.78;1.95;;;22.00;80.20;;;;;;4865730;29;20041;-68
2022/06/22 09:16:17;;;;;;;5.20;2.63;;;22.10;81.10;;;;;;4881296;29;20056;-68
2022/06/22 09:19:17;;;;;;;6.18;2.22;;;22.20;76.70;;;;;;4865385;29;20197;-68
2022/06/22 09:22:01;;;;;;;4.78;2.03;;;22.30;77.20;;;;;;4865441;29;20057;-68
2022/06/22 09:24:48;;;;;;;6.53;2.83;;;22.50;79.00;;;;;;4880774;29;20047;-68
2022/06/22 09:27:20;;;;;;;8.07;2.35;;;22.60;87.30;;;;;;4881064;29;20506;-68
2022/06/22 09:30:04;;;;;;;11.50;2.75;;;22.70;85.90;;;;;;4880820;29;20088;-68
2022/06/22 09:32:38;;;;;;;4.95;2.25;;;22.80;83.90;;;;;;4865524;29;20045;-68
2022/06/22 09:35:52;;;;;;;10.52;2.70;;;23.00;73.40;;;;;;4881024;29;20052;-67
2022/06/22 09:38:36;;;;;;;7.05;3.13;;;23.10;78.30;;;;;;4888913;29;20052;-69
2022/06/22 09:41:59;;;;;;;10.73;2.85;;;23.10;74.40;;;;;;4917662;28;20061;-69
2022/06/22 09:44:34;;;;;;;6.90;2.83;;;23.30;73.70;;;;;;4911024;28;20521;-69
2022/06/22 09:47:18;;;;;;;10.25;2.70;;;23.30;72.60;;;;;;4976520;28;20046;-69
2022/06/22 09:50:02;;;;;;;6.20;2.38;;;23.40;70.70;;;;;;4976530;28;20044;-70
2022/06/22 09:52:36;;;;;;;7.05;2.53;;;23.50;65.60;;;;;;4976443;28;20042;-70
2022/06/22 09:58:43;;;;;;;6.63;2.30;;;23.80;66.10;;;;;;4976327;28;20050;-68
2022/06/22 10:01:30;;;;;;;7.68;2.40;;;23.90;66.80;;;;;;4976768;28;20494;-68
2022/06/22 10:04:15;;;;;;;6.05;2.47;;;24.00;60.80;;;;;;4976460;28;20050;-68
2022/06/22 10:06:56;;;;;;;6.15;1.92;;;24.00;60.50;;;;;;4928543;28;20046;-68
2022/06/22 10:09:45;;;;;;;10.25;3.03;;;24.10;58.80;;;;;;4976497;28;20049;-68
2022/06/22 10:12:32;;;;;;;7.35;2.10;;;24.20;62.80;;;;;;4976514;28;20053;-68
2022/06/22 10:15:28;;;;;;;4.82;1.67;;;24.40;62.70;;;;;;4976225;28;20049;-68
2022/06/22 10:17:57;;;;;;;8.25;2.20;;;24.60;58.60;;;;;;4960230;28;20498;-68
2022/06/22 10:20:39;;;;;;;4.65;2.13;;;24.60;59.50;;;;;;4976033;28;20093;-68
2022/06/22 10:23:24;;;;;;;8.40;2.22;;;24.80;60.50;;;;;;4976110;28;20089;-68
2022/06/22 10:26:26;;;;;;;9.13;2.50;;;24.90;62.60;;;;;;4960035;28;20038;-68
2022/06/22 10:29:10;;;;;;;4.85;2.25;;;25.00;60.60;;;;;;4976068;28;20042;-67
2022/06/22 10:31:51;;;;;;;8.75;2.60;;;25.00;58.70;;;;;;4976662;28;20046;-67
2022/06/22 10:34:49;;;;;;;5.90;1.98;;;25.10;61.00;;;;;;4976279;28;20105;-68
2022/06/22 10:37:20;;;;;;;4.95;1.85;;;25.10;56.70;;;;;;4976555;28;20073;-68
2022/06/22 10:39:58;;;;;;;5.53;2.28;;;25.30;57.20;;;;;;4975897;28;20042;-68
2022/06/22 10:45:54;;;;;;;8.82;2.10;;;25.40;57.10;;;;;;4975941;28;20058;-68
2022/06/22 10:48:54;;;;;;;4.90;2.25;;;25.50;58.70;;;;;;4960367;28;20065;-68
2022/06/22 10:51:29;;;;;;;4.40;2.22;;;25.60;55.50;;;;;;4975951;28;20158;-68
2022/06/22 10:54:07;;;;;;;4.82;2.15;;;25.70;55.30;;;;;;4978101;28;20042;-67
2022/06/22 10:56:54;;;;;;;4.07;1.80;;;25.90;54.20;;;;;;4963377;28;20038;-68
2022/06/22 10:59:40;;;;;;;8.55;1.73;;;25.90;54.00;;;;;;4979690;28;20514;-68
2022/06/22 11:02:43;;;;;;;9.23;2.60;;;25.90;52.40;;;;;;4979741;28;20046;-68
2022/06/22 11:05:18;;;;;;;3.85;2.00;;;25.90;52.00;;;;;;4979496;28;20499;-68
2022/06/22 11:08:05;;;;;;;3.90;1.80;;;25.70;51.50;;;;;;4979801;28;20097;-68
2022/06/22 11:10:49;;;;;;;3.97;1.70;;;25.90;50.60;;;;;;4979619;28;20129;-68
2022/06/22 11:13:41;;;;;;;7.20;1.70;;;26.00;50.70;;;;;;4979188;28;20050;-68
2022/06/22 11:16:10;;;;;;;5.30;1.67;;;26.10;49.10;;;;;;4979150;28;20046;-68
2022/06/22 11:19:04;;;;;;;4.82;1.27;;;26.20;50.90;;;;;;4979264;28;20062;-68
2022/06/22 11:21:51;;;;;;;4.18;1.20;;;26.40;49.70;;;;;;4997024;28;20415;-68
2022/06/22 11:24:29;;;;;;;3.05;1.30;;;26.50;48.10;;;;;;4978922;28;20046;-69
2022/06/22 11:33:19;;;;;;;3.75;1.40;;;26.90;48.50;;;;;;4978805;28;20039;-69
2022/06/22 11:36:00;;;;;;;8.52;1.65;;;27.00;49.80;;;;;;4979038;28;20042;-69
2022/06/22 11:38:58;;;;;;;3.65;1.20;;;27.10;47.90;;;;;;4962892;28;20526;-69
2022/06/22 11:41:45;;;;;;;5.63;1.67;;;27.20;46.10;;;;;;4978986;28;20117;-69
2022/06/22 11:44:42;;;;;;;5.57;1.83;;;27.30;47.60;;;;;;4962429;28;20418;-69
2022/06/22 11:47:31;;;;;;;3.80;1.67;;;27.50;48.60;;;;;;4978804;28;20042;-69
2022/06/22 11:50:25;;;;;;;5.60;1.90;;;27.50;48.00;;;;;;4978800;28;20491;-69
2022/06/22 11:53:13;;;;;;;5.85;1.60;;;27.60;48.10;;;;;;4978615;28;20091;-69
2022/06/22 11:55:46;;;;;;;5.55;1.48;;;27.60;48.00;;;;;;4978950;28;20110;-69
2022/06/22 11:58:39;;;;;;;4.32;1.33;;;27.70;47.60;;;;;;4978359;28;20038;-69
2022/06/22 12:01:11;;;;;;;8.77;1.92;;;27.80;47.20;;;;;;4978399;28;20062;-69
2022/06/22 12:03:49;;;;;;;4.60;1.70;;;27.90;47.50;;;;;;4962069;28;20089;-69
2022/06/22 12:06:36;;;;;;;3.85;1.58;;;27.90;48.60;;;;;;4978252;28;20122;-69
2022/06/22 12:09:34;;;;;;;4.68;1.80;;;28.10;47.50;;;;;;4978171;28;20097;-69
2022/06/22 12:12:46;;;;;;;5.75;1.80;;;28.00;47.00;;;;;;4978579;28;20046;-69
2022/06/22 12:15:20;;;;;;;6.50;1.55;;;28.10;47.80;;;;;;4961905;28;20065;-69
2022/06/22 12:18:21;;;;;;;4.85;1.50;;;28.20;48.30;;;;;;4978261;28;20073;-69
2022/06/22 12:21:09;;;;;;;7.10;1.75;;;28.30;49.80;;;;;;4977983;28;20046;-69
2022/06/22 12:23:43;;;;;;;6.18;2.22;;;28.40;48.30;;;;;;4977970;28;20043;-69
2022/06/22 12:26:35;;;;;;;5.18;1.70;;;28.50;49.50;;;;;;4961809;28;20042;-69
2022/06/22 12:29:16;;;;;;;4.43;1.92;;;28.70;48.20;;;;;;4977779;28;20046;-69
2022/06/22 12:31:57;;;;;;;5.95;1.67;;;28.70;44.80;;;;;;4977784;28;20042;-69
2022/06/22 12:34:44;;;;;;;6.93;1.83;;;28.70;45.30;;;;;;4977759;28;20078;-69
2022/06/22 12:37:18;;;;;;;5.68;1.70;;;28.80;46.50;;;;;;4995479;28;20093;-69
2022/06/22 12:39:52;;;;;;;4.30;1.70;;;28.70;45.50;;;;;;4961463;28;20045;-69
2022/06/22 12:42:37;;;;;;;6.85;1.90;;;28.60;44.20;;;;;;4961464;28;20410;-70
2022/06/22 12:45:47;;;;;;;3.78;1.92;;;28.60;45.10;;;;;;4977763;28;20125;-71
2022/06/22 12:48:31;;;;;;;5.50;1.98;;;28.50;47.40;;;;;;4881291;29;20119;-71
2022/06/22 12:51:33;;;;;;;5.90;1.75;;;28.50;47.20;;;;;;4975973;28;20046;-71
2022/06/22 12:54:11;;;;;;;7.07;1.90;;;28.50;44.70;;;;;;4977440;28;20089;-71
2022/06/22 12:56:49;;;;;;;6.50;2.13;;;28.50;45.00;;;;;;4961186;28;20415;-71
2022/06/22 12:59:43;;;;;;;5.68;1.60;;;28.60;46.10;;;;;;4977379;28;20042;-71
2022/06/22 13:02:16;;;;;;;6.93;1.98;;;28.70;48.20;;;;;;4977204;28;20046;-71
2022/06/22 13:04:44;;;;;;;5.28;1.55;;;28.80;46.20;;;;;;4977134;28;20578;-70
2022/06/22 13:07:14;;;;;;;7.18;2.03;;;28.80;46.30;;;;;;4977149;28;20042;-70
2022/06/22 13:09:40;;;;;;;7.68;2.42;;;29.00;47.10;;;;;;4977298;28;20565;-70
2022/06/22 13:12:21;;;;;;;6.43;2.03;;;29.10;46.70;;;;;;4994975;28;20042;-70
2022/06/22 13:15:17;;;;;;;8.50;1.83;;;29.10;47.00;;;;;;4976986;28;20062;-71
2022/06/22 13:18:13;;;;;;;7.05;2.25;;;29.10;48.00;;;;;;4976385;28;20077;-71
2022/06/22 13:21:12;;;;;;;4.57;2.00;;;29.10;46.40;;;;;;4960870;28;20047;-71
2022/06/22 13:24:10;;;;;;;6.85;2.00;;;29.20;47.20;;;;;;4976841;28;20038;-71
2022/06/22 13:27:16;;;;;;;6.95;1.77;;;29.30;46.80;;;;;;4969872;28;20525;-71
2022/06/22 13:30:15;;;;;;;6.43;2.15;;;29.20;48.00;;;;;;4976625;28;20173;-71
2022/06/22 13:32:49;;;;;;;6.18;2.20;;;29.30;47.60;;;;;;4979296;28;20056;-70
2022/06/22 13:35:42;;;;;;;5.53;2.70;;;29.20;47.90;;;;;;4961876;28;20125;-72
2022/06/22 13:38:14;;;;;;;8.48;2.92;;;29.30;46.70;;;;;;4960505;28;20054;-73
2022/06/22 13:41:01;;;;;;;9.55;2.63;;;29.20;46.40;;;;;;4976678;28;20054;-73
2022/06/22 13:43:55;;;;;;;8.95;2.47;;;29.10;45.60;;;;;;4976467;28;20042;-73
2022/06/22 13:46:41;;;;;;;6.45;2.03;;;28.90;46.00;;;;;;4976928;28;20034;-73
2022/06/22 13:49:17;;;;;;;6.95;2.13;;;29.00;46.80;;;;;;4990962;23;20532;-67
2022/06/22 13:51:58;;;;;;;5.28;1.67;;;28.90;46.60;;;;;;4976515;28;20057;-67
2022/06/22 13:54:36;;;;;;;4.88;1.60;;;29.00;47.90;;;;;;4992717;28;20057;-67
2022/06/22 13:57:22;;;;;;;5.45;1.90;;;29.20;47.80;;;;;;4960793;28;20042;-67
2022/06/22 14:00:25;;;;;;;6.53;1.60;;;29.30;47.10;;;;;;4960874;28;20077;-67
2022/06/22 14:02:58;;;;;;;5.43;1.92;;;29.40;47.00;;;;;;4976645;28;20494;-67
2022/06/22 14:05:39;;;;;;;6.38;1.83;;;29.40;46.40;;;;;;4977121;28;20068;-68
2022/06/22 14:08:13;;;;;;;4.47;2.00;;;29.40;47.00;;;;;;4976209;28;20039;-67
2022/06/22 14:10:47;;;;;;;7.05;2.20;;;29.30;46.20;;;;;;4976889;28;20034;-70